sensor_id;sensor_type;location;lat;lon;timestamp;temperature;humidity
70051;SHT30;57391;51.306;22.680;2023-02-28T00:01:31;0.35;58.91
70051;SHT30;57391;51.306;22.680;2023-02-28T00:03:59;0.29;58.48
70051;SHT30;57391;51.306;22.680;2023-02-28T00:06:27;0.24;58.45
70051;SHT30;57391;51.306;22.680;2023-02-28T00:08:55;0.19;58.56
70051;SHT30;57391;51.306;22.680;2023-02-28T00:11:22;0.15;58.45
70051;SHT30;57391;51.306;22.680;2023-02-28T00:13:50;0.13;58.46
70051;SHT30;57391;51.306;22.680;2023-02-28T00:16:20;0.12;58.57
70051;SHT30;57391;51.306;22.680;2023-02-28T00:18:49;0.13;58.91
70051;SHT30;57391;51.306;22.680;2023-02-28T00:21:17;0.10;59.36
70051;SHT30;57391;51.306;22.680;2023-02-28T00:23:45;0.07;59.50
70051;SHT30;57391;51.306;22.680;2023-02-28T00:26:13;0.06;59.67
70051;SHT30;57391;51.306;22.680;2023-02-28T00:28:41;0.04;59.75
70051;SHT30;57391;51.306;22.680;2023-02-28T00:31:08;0.03;59.70
70051;SHT30;57391;51.306;22.680;2023-02-28T00:33:35;0.01;59.85
70051;SHT30;57391;51.306;22.680;2023-02-28T00:36:03;-0.04;60.35
70051;SHT30;57391;51.306;22.680;2023-02-28T00:38:36;-0.10;60.32
70051;SHT30;57391;51.306;22.680;2023-02-28T00:41:05;-0.13;60.10
70051;SHT30;57391;51.306;22.680;2023-02-28T00:43:36;-0.16;60.46
70051;SHT30;57391;51.306;22.680;2023-02-28T00:46:05;-0.18;60.67
70051;SHT30;57391;51.306;22.680;2023-02-28T00:48:33;-0.21;60.83
70051;SHT30;57391;51.306;22.680;2023-02-28T00:51:00;-0.24;61.02
70051;SHT30;57391;51.306;22.680;2023-02-28T00:53:28;-0.23;61.04
70051;SHT30;57391;51.306;22.680;2023-02-28T00:55:57;-0.23;61.29
70051;SHT30;57391;51.306;22.680;2023-02-28T00:58:26;-0.22;61.41
70051;SHT30;57391;51.306;22.680;2023-02-28T01:00:53;-0.27;61.23
70051;SHT30;57391;51.306;22.680;2023-02-28T01:03:21;-0.26;61.09
70051;SHT30;57391;51.306;22.680;2023-02-28T01:05:49;-0.26;61.08
70051;SHT30;57391;51.306;22.680;2023-02-28T01:08:17;-0.26;61.11
70051;SHT30;57391;51.306;22.680;2023-02-28T01:10:44;-0.25;61.01
70051;SHT30;57391;51.306;22.680;2023-02-28T01:13:12;-0.26;61.06
70051;SHT30;57391;51.306;22.680;2023-02-28T01:15:41;-0.27;61.26
70051;SHT30;57391;51.306;22.680;2023-02-28T01:18:17;-0.29;61.54
70051;SHT30;57391;51.306;22.680;2023-02-28T01:20:45;-0.32;61.49
70051;SHT30;57391;51.306;22.680;2023-02-28T01:23:13;-0.32;61.07
70051;SHT30;57391;51.306;22.680;2023-02-28T01:25:39;-0.32;61.02
70051;SHT30;57391;51.306;22.680;2023-02-28T01:28:07;-0.32;61.28
70051;SHT30;57391;51.306;22.680;2023-02-28T01:30:34;-0.35;61.41
70051;SHT30;57391;51.306;22.680;2023-02-28T01:33:01;-0.40;61.67
70051;SHT30;57391;51.306;22.680;2023-02-28T01:35:31;-0.43;61.71
70051;SHT30;57391;51.306;22.680;2023-02-28T01:38:01;-0.46;61.67
70051;SHT30;57391;51.306;22.680;2023-02-28T01:40:28;-0.46;61.74
70051;SHT30;57391;51.306;22.680;2023-02-28T01:42:56;-0.47;62.11
70051;SHT30;57391;51.306;22.680;2023-02-28T01:48:00;-0.53;62.35
70051;SHT30;57391;51.306;22.680;2023-02-28T01:50:34;-0.55;62.52
70051;SHT30;57391;51.306;22.680;2023-02-28T01:53:13;-0.58;62.63
70051;SHT30;57391;51.306;22.680;2023-02-28T01:55:47;-0.62;62.74
70051;SHT30;57391;51.306;22.680;2023-02-28T01:58:20;-0.67;62.81
70051;SHT30;57391;51.306;22.680;2023-02-28T02:00:48;-0.69;62.78
70051;SHT30;57391;51.306;22.680;2023-02-28T02:03:17;-0.70;62.71
70051;SHT30;57391;51.306;22.680;2023-02-28T02:05:47;-0.73;62.70
70051;SHT30;57391;51.306;22.680;2023-02-28T02:08:18;-0.75;62.68
70051;SHT30;57391;51.306;22.680;2023-02-28T02:10:51;-0.78;62.77
70051;SHT30;57391;51.306;22.680;2023-02-28T02:16:40;-0.83;63.00
70051;SHT30;57391;51.306;22.680;2023-02-28T02:37:03;-0.96;63.28
70051;SHT30;57391;51.306;22.680;2023-02-28T02:39:48;-1.02;63.44
70051;SHT30;57391;51.306;22.680;2023-02-28T02:42:55;-1.02;63.82
70051;SHT30;57391;51.306;22.680;2023-02-28T02:45:39;-1.04;63.97
70051;SHT30;57391;51.306;22.680;2023-02-28T02:48:09;-1.05;64.00
70051;SHT30;57391;51.306;22.680;2023-02-28T02:51:04;-1.07;64.08
70051;SHT30;57391;51.306;22.680;2023-02-28T02:53:49;-1.11;64.15
70051;SHT30;57391;51.306;22.680;2023-02-28T02:56:27;-1.14;64.22
70051;SHT30;57391;51.306;22.680;2023-02-28T02:58:59;-1.15;64.13
70051;SHT30;57391;51.306;22.680;2023-02-28T03:01:31;-1.17;64.17
70051;SHT30;57391;51.306;22.680;2023-02-28T03:04:09;-1.19;63.88
70051;SHT30;57391;51.306;22.680;2023-02-28T03:06:47;-1.24;63.89
70051;SHT30;57391;51.306;22.680;2023-02-28T03:09:22;-1.29;64.06
70051;SHT30;57391;51.306;22.680;2023-02-28T03:11:52;-1.35;65.80
70051;SHT30;57391;51.306;22.680;2023-02-28T03:17:40;-1.45;66.65
70051;SHT30;57391;51.306;22.680;2023-02-28T03:23:36;-1.54;66.71
70051;SHT30;57391;51.306;22.680;2023-02-28T03:26:14;-1.57;66.85
70051;SHT30;57391;51.306;22.680;2023-02-28T03:36:41;-1.66;66.55
70051;SHT30;57391;51.306;22.680;2023-02-28T03:39:22;-1.64;66.61
70051;SHT30;57391;51.306;22.680;2023-02-28T03:41:59;-1.66;66.37
70051;SHT30;57391;51.306;22.680;2023-02-28T03:44:42;-1.70;66.13
70051;SHT30;57391;51.306;22.680;2023-02-28T03:47:25;-1.71;66.41
70051;SHT30;57391;51.306;22.680;2023-02-28T03:50:04;-1.71;67.53
70051;SHT30;57391;51.306;22.680;2023-02-28T03:52:45;-1.68;68.42
70051;SHT30;57391;51.306;22.680;2023-02-28T03:55:28;-1.66;69.16
70051;SHT30;57391;51.306;22.680;2023-02-28T03:58:17;-1.68;68.24
70051;SHT30;57391;51.306;22.680;2023-02-28T04:00:47;-1.72;67.57
70051;SHT30;57391;51.306;22.680;2023-02-28T04:03:21;-1.75;67.21
70051;SHT30;57391;51.306;22.680;2023-02-28T04:05:53;-1.75;67.23
70051;SHT30;57391;51.306;22.680;2023-02-28T04:08:23;-1.76;67.34
70051;SHT30;57391;51.306;22.680;2023-02-28T04:13:49;-1.76;67.59
70051;SHT30;57391;51.306;22.680;2023-02-28T04:16:16;-1.77;67.73
70051;SHT30;57391;51.306;22.680;2023-02-28T04:18:44;-1.75;67.60
70051;SHT30;57391;51.306;22.680;2023-02-28T04:21:11;-1.73;67.55
70051;SHT30;57391;51.306;22.680;2023-02-28T04:23:39;-1.72;67.66
70051;SHT30;57391;51.306;22.680;2023-02-28T04:26:06;-1.71;67.77
70051;SHT30;57391;51.306;22.680;2023-02-28T04:28:33;-1.73;67.47
70051;SHT30;57391;51.306;22.680;2023-02-28T04:31:02;-1.74;67.33
70051;SHT30;57391;51.306;22.680;2023-02-28T04:33:32;-1.75;67.43
70051;SHT30;57391;51.306;22.680;2023-02-28T04:36:00;-1.76;67.62
70051;SHT30;57391;51.306;22.680;2023-02-28T04:38:36;-1.76;68.25
70051;SHT30;57391;51.306;22.680;2023-02-28T04:41:05;-1.74;68.55
70051;SHT30;57391;51.306;22.680;2023-02-28T04:43:33;-1.73;68.49
70051;SHT30;57391;51.306;22.680;2023-02-28T04:46:01;-1.71;68.56
70051;SHT30;57391;51.306;22.680;2023-02-28T04:48:33;-1.69;68.74
70051;SHT30;57391;51.306;22.680;2023-02-28T04:51:04;-1.67;68.45
70051;SHT30;57391;51.306;22.680;2023-02-28T04:53:37;-1.66;68.85
70051;SHT30;57391;51.306;22.680;2023-02-28T04:56:06;-1.65;68.61
70051;SHT30;57391;51.306;22.680;2023-02-28T04:58:38;-1.63;68.54
70051;SHT30;57391;51.306;22.680;2023-02-28T05:01:07;-1.61;68.64
70051;SHT30;57391;51.306;22.680;2023-02-28T05:03:46;-1.60;68.53
70051;SHT30;57391;51.306;22.680;2023-02-28T05:06:14;-1.60;68.66
70051;SHT30;57391;51.306;22.680;2023-02-28T05:08:42;-1.59;68.61
70051;SHT30;57391;51.306;22.680;2023-02-28T05:11:28;-1.61;68.36
70051;SHT30;57391;51.306;22.680;2023-02-28T05:14:01;-1.62;68.19
70051;SHT30;57391;51.306;22.680;2023-02-28T05:16:30;-1.61;68.06
70051;SHT30;57391;51.306;22.680;2023-02-28T05:18:59;-1.59;68.00
70051;SHT30;57391;51.306;22.680;2023-02-28T05:21:33;-1.55;67.96
70051;SHT30;57391;51.306;22.680;2023-02-28T05:24:07;-1.54;67.91
70051;SHT30;57391;51.306;22.680;2023-02-28T05:26:42;-1.52;67.99
70051;SHT30;57391;51.306;22.680;2023-02-28T05:29:10;-1.53;67.85
70051;SHT30;57391;51.306;22.680;2023-02-28T05:31:37;-1.53;67.79
70051;SHT30;57391;51.306;22.680;2023-02-28T05:34:05;-1.54;67.66
70051;SHT30;57391;51.306;22.680;2023-02-28T05:36:33;-1.54;67.59
70051;SHT30;57391;51.306;22.680;2023-02-28T05:39:03;-1.54;67.62
70051;SHT30;57391;51.306;22.680;2023-02-28T05:41:34;-1.53;67.60
70051;SHT30;57391;51.306;22.680;2023-02-28T05:44:01;-1.51;67.67
70051;SHT30;57391;51.306;22.680;2023-02-28T05:46:28;-1.49;67.84
70051;SHT30;57391;51.306;22.680;2023-02-28T05:48:55;-1.44;68.24
70051;SHT30;57391;51.306;22.680;2023-02-28T05:51:24;-1.41;68.94
70051;SHT30;57391;51.306;22.680;2023-02-28T05:53:51;-1.39;69.44
70051;SHT30;57391;51.306;22.680;2023-02-28T05:56:18;-1.38;69.83
70051;SHT30;57391;51.306;22.680;2023-02-28T05:58:45;-1.34;70.08
70051;SHT30;57391;51.306;22.680;2023-02-28T06:01:20;-1.27;70.04
70051;SHT30;57391;51.306;22.680;2023-02-28T06:03:51;-1.17;69.84
70051;SHT30;57391;51.306;22.680;2023-02-28T06:06:18;-1.08;69.89
70051;SHT30;57391;51.306;22.680;2023-02-28T06:08:45;-0.96;69.86
70051;SHT30;57391;51.306;22.680;2023-02-28T06:11:12;-0.76;69.57
70051;SHT30;57391;51.306;22.680;2023-02-28T06:13:40;-0.46;69.07
70051;SHT30;57391;51.306;22.680;2023-02-28T06:16:08;-0.07;68.49
70051;SHT30;57391;51.306;22.680;2023-02-28T06:18:38;0.44;67.60
70051;SHT30;57391;51.306;22.680;2023-02-28T06:21:05;1.05;66.02
70051;SHT30;57391;51.306;22.680;2023-02-28T06:23:32;1.74;64.71
70051;SHT30;57391;51.306;22.680;2023-02-28T06:25:59;2.22;63.27
70051;SHT30;57391;51.306;22.680;2023-02-28T06:28:26;2.60;62.13
70051;SHT30;57391;51.306;22.680;2023-02-28T06:30:53;3.13;60.90
70051;SHT30;57391;51.306;22.680;2023-02-28T06:33:20;3.61;59.29
70051;SHT30;57391;51.306;22.680;2023-02-28T06:35:49;3.82;57.91
70051;SHT30;57391;51.306;22.680;2023-02-28T06:38:18;4.03;56.79
70051;SHT30;57391;51.306;22.680;2023-02-28T06:40:52;4.34;55.58
70051;SHT30;57391;51.306;22.680;2023-02-28T06:43:23;4.57;55.03
70051;SHT30;57391;51.306;22.680;2023-02-28T06:45:56;4.63;54.25
70051;SHT30;57391;51.306;22.680;2023-02-28T06:48:27;4.61;53.47
70051;SHT30;57391;51.306;22.680;2023-02-28T06:53:32;4.41;53.71
70051;SHT30;57391;51.306;22.680;2023-02-28T06:56:03;4.32;53.62
70051;SHT30;57391;51.306;22.680;2023-02-28T06:58:32;4.19;52.82
70051;SHT30;57391;51.306;22.680;2023-02-28T07:01:00;4.26;52.96
70051;SHT30;57391;51.306;22.680;2023-02-28T07:03:29;4.66;52.65
70051;SHT30;57391;51.306;22.680;2023-02-28T07:05:57;5.20;51.39
70051;SHT30;57391;51.306;22.680;2023-02-28T07:08:24;5.66;50.38
70051;SHT30;57391;51.306;22.680;2023-02-28T07:10:55;6.12;49.71
70051;SHT30;57391;51.306;22.680;2023-02-28T07:13:23;6.40;48.90
70051;SHT30;57391;51.306;22.680;2023-02-28T07:16:04;6.38;46.92
70051;SHT30;57391;51.306;22.680;2023-02-28T07:18:35;5.98;46.48
70051;SHT30;57391;51.306;22.680;2023-02-28T07:21:04;5.58;46.87
70051;SHT30;57391;51.306;22.680;2023-02-28T07:23:35;5.32;47.66
70051;SHT30;57391;51.306;22.680;2023-02-28T07:26:04;5.07;47.52
70051;SHT30;57391;51.306;22.680;2023-02-28T07:28:33;4.88;48.00
70051;SHT30;57391;51.306;22.680;2023-02-28T07:31:04;4.88;47.47
70051;SHT30;57391;51.306;22.680;2023-02-28T07:33:32;4.82;47.86
70051;SHT30;57391;51.306;22.680;2023-02-28T07:36:01;5.03;48.61
70051;SHT30;57391;51.306;22.680;2023-02-28T07:38:35;5.45;48.55
70051;SHT30;57391;51.306;22.680;2023-02-28T07:41:03;5.86;47.85
70051;SHT30;57391;51.306;22.680;2023-02-28T07:43:31;6.20;46.88
70051;SHT30;57391;51.306;22.680;2023-02-28T07:46:09;6.31;46.33
70051;SHT30;57391;51.306;22.680;2023-02-28T07:48:43;6.55;46.11
70051;SHT30;57391;51.306;22.680;2023-02-28T07:51:11;6.62;45.40
70051;SHT30;57391;51.306;22.680;2023-02-28T07:53:38;6.60;45.03
70051;SHT30;57391;51.306;22.680;2023-02-28T07:56:05;6.63;45.10
70051;SHT30;57391;51.306;22.680;2023-02-28T07:58:33;6.58;44.44
70051;SHT30;57391;51.306;22.680;2023-02-28T08:01:07;6.46;44.42
70051;SHT30;57391;51.306;22.680;2023-02-28T08:03:37;6.54;44.30
70051;SHT30;57391;51.306;22.680;2023-02-28T08:06:06;6.49;43.12
70051;SHT30;57391;51.306;22.680;2023-02-28T08:08:41;6.32;43.36
70051;SHT30;57391;51.306;22.680;2023-02-28T08:11:08;6.40;43.82
70051;SHT30;57391;51.306;22.680;2023-02-28T08:13:35;6.68;44.06
70051;SHT30;57391;51.306;22.680;2023-02-28T08:16:02;6.97;43.82
70051;SHT30;57391;51.306;22.680;2023-02-28T08:18:29;7.09;42.69
70051;SHT30;57391;51.306;22.680;2023-02-28T08:20:58;6.91;42.44
70051;SHT30;57391;51.306;22.680;2023-02-28T08:23:25;6.88;43.01
70051;SHT30;57391;51.306;22.680;2023-02-28T08:25:53;7.07;43.05
70051;SHT30;57391;51.306;22.680;2023-02-28T08:28:23;7.03;41.78
70051;SHT30;57391;51.306;22.680;2023-02-28T08:30:50;6.80;41.98
70051;SHT30;57391;51.306;22.680;2023-02-28T08:33:17;6.79;42.52
70051;SHT30;57391;51.306;22.680;2023-02-28T08:35:44;6.87;42.38
70051;SHT30;57391;51.306;22.680;2023-02-28T08:38:11;6.77;41.75
70051;SHT30;57391;51.306;22.680;2023-02-28T08:40:38;6.67;42.50
70051;SHT30;57391;51.306;22.680;2023-02-28T08:43:06;6.74;42.98
70051;SHT30;57391;51.306;22.680;2023-02-28T08:45:33;6.86;43.23
70051;SHT30;57391;51.306;22.680;2023-02-28T08:48:00;7.09;42.96
70051;SHT30;57391;51.306;22.680;2023-02-28T08:50:27;7.35;42.36
70051;SHT30;57391;51.306;22.680;2023-02-28T08:52:54;7.58;42.75
70051;SHT30;57391;51.306;22.680;2023-02-28T08:55:21;7.85;42.44
70051;SHT30;57391;51.306;22.680;2023-02-28T08:57:49;7.97;42.14
70051;SHT30;57391;51.306;22.680;2023-02-28T09:00:16;7.99;42.35
70051;SHT30;57391;51.306;22.680;2023-02-28T09:02:44;7.97;41.89
70051;SHT30;57391;51.306;22.680;2023-02-28T09:05:11;7.87;41.71
70051;SHT30;57391;51.306;22.680;2023-02-28T09:07:38;7.85;41.61
70051;SHT30;57391;51.306;22.680;2023-02-28T09:10:05;7.64;41.10
70051;SHT30;57391;51.306;22.680;2023-02-28T09:12:33;7.30;41.26
70051;SHT30;57391;51.306;22.680;2023-02-28T09:15:02;7.16;41.84
70051;SHT30;57391;51.306;22.680;2023-02-28T09:17:29;7.09;41.83
70051;SHT30;57391;51.306;22.680;2023-02-28T09:19:57;6.86;41.54
70051;SHT30;57391;51.306;22.680;2023-02-28T09:22:24;6.73;41.68
70051;SHT30;57391;51.306;22.680;2023-02-28T09:24:51;6.63;41.99
70051;SHT30;57391;51.306;22.680;2023-02-28T09:27:18;6.51;42.24
70051;SHT30;57391;51.306;22.680;2023-02-28T09:29:45;6.32;42.16
70051;SHT30;57391;51.306;22.680;2023-02-28T09:32:12;6.15;42.42
70051;SHT30;57391;51.306;22.680;2023-02-28T09:34:39;6.16;42.70
70051;SHT30;57391;51.306;22.680;2023-02-28T09:37:06;6.20;43.06
70051;SHT30;57391;51.306;22.680;2023-02-28T09:39:33;6.27;43.16
70051;SHT30;57391;51.306;22.680;2023-02-28T09:42:00;6.25;42.90
70051;SHT30;57391;51.306;22.680;2023-02-28T09:44:40;6.20;42.75
70051;SHT30;57391;51.306;22.680;2023-02-28T09:47:32;6.24;43.00
70051;SHT30;57391;51.306;22.680;2023-02-28T09:50:49;6.30;43.00
70051;SHT30;57391;51.306;22.680;2023-02-28T09:52:59;6.26;42.96
70051;SHT30;57391;51.306;22.680;2023-02-28T09:55:39;6.19;42.84
70051;SHT30;57391;51.306;22.680;2023-02-28T10:01:10;6.01;42.85
70051;SHT30;57391;51.306;22.680;2023-02-28T10:06:55;5.98;42.80
70051;SHT30;57391;51.306;22.680;2023-02-28T10:09:25;6.02;42.99
70051;SHT30;57391;51.306;22.680;2023-02-28T10:12:01;6.05;43.07
70051;SHT30;57391;51.306;22.680;2023-02-28T10:14:32;6.08;42.46
70051;SHT30;57391;51.306;22.680;2023-02-28T10:17:02;6.09;41.95
70051;SHT30;57391;51.306;22.680;2023-02-28T10:24:49;6.09;42.87
70051;SHT30;57391;51.306;22.680;2023-02-28T10:29:54;6.05;43.26
70051;SHT30;57391;51.306;22.680;2023-02-28T10:32:25;6.07;43.08
70051;SHT30;57391;51.306;22.680;2023-02-28T10:35:00;6.12;42.91
70051;SHT30;57391;51.306;22.680;2023-02-28T10:37:41;6.11;43.36
70051;SHT30;57391;51.306;22.680;2023-02-28T10:43:03;6.09;43.54
70051;SHT30;57391;51.306;22.680;2023-02-28T10:45:39;6.06;43.37
70051;SHT30;57391;51.306;22.680;2023-02-28T10:49:02;6.03;43.50
70051;SHT30;57391;51.306;22.680;2023-02-28T10:51:34;6.04;43.57
70051;SHT30;57391;51.306;22.680;2023-02-28T10:54:05;6.08;43.03
70051;SHT30;57391;51.306;22.680;2023-02-28T10:56:43;6.16;43.03
70051;SHT30;57391;51.306;22.680;2023-02-28T10:59:27;6.19;42.99
70051;SHT30;57391;51.306;22.680;2023-02-28T11:01:57;6.13;42.84
70051;SHT30;57391;51.306;22.680;2023-02-28T11:07:00;6.16;43.62
70051;SHT30;57391;51.306;22.680;2023-02-28T11:09:34;6.21;44.04
70051;SHT30;57391;51.306;22.680;2023-02-28T11:12:19;6.25;44.24
70051;SHT30;57391;51.306;22.680;2023-02-28T11:14:53;6.30;43.59
70051;SHT30;57391;51.306;22.680;2023-02-28T11:17:27;6.30;44.13
70051;SHT30;57391;51.306;22.680;2023-02-28T11:19:59;6.32;43.97
70051;SHT30;57391;51.306;22.680;2023-02-28T11:22:35;6.32;43.78
70051;SHT30;57391;51.306;22.680;2023-02-28T11:25:19;6.29;43.39
70051;SHT30;57391;51.306;22.680;2023-02-28T11:27:56;6.28;43.80
70051;SHT30;57391;51.306;22.680;2023-02-28T11:30:35;6.27;43.94
70051;SHT30;57391;51.306;22.680;2023-02-28T11:34:07;6.28;43.34
70051;SHT30;57391;51.306;22.680;2023-02-28T11:39:00;6.31;43.63
70051;SHT30;57391;51.306;22.680;2023-02-28T11:41:52;6.32;43.17
70051;SHT30;57391;51.306;22.680;2023-02-28T11:44:33;6.42;43.20
70051;SHT30;57391;51.306;22.680;2023-02-28T11:47:30;6.51;43.35
70051;SHT30;57391;51.306;22.680;2023-02-28T11:52:56;6.61;43.76
70051;SHT30;57391;51.306;22.680;2023-02-28T11:59:05;6.71;44.37
70051;SHT30;57391;51.306;22.680;2023-02-28T12:02:05;6.77;43.56
70051;SHT30;57391;51.306;22.680;2023-02-28T12:04:41;6.79;43.78
70051;SHT30;57391;51.306;22.680;2023-02-28T12:27:58;7.26;42.37
70051;SHT30;57391;51.306;22.680;2023-02-28T12:30:27;7.39;41.74
70051;SHT30;57391;51.306;22.680;2023-02-28T12:33:09;7.47;41.49
70051;SHT30;57391;51.306;22.680;2023-02-28T12:35:48;7.41;41.31
70051;SHT30;57391;51.306;22.680;2023-02-28T12:38:25;7.49;42.33
70051;SHT30;57391;51.306;22.680;2023-02-28T12:44:19;7.57;41.69
70051;SHT30;57391;51.306;22.680;2023-02-28T12:47:03;7.61;41.44
70051;SHT30;57391;51.306;22.680;2023-02-28T12:49:59;7.74;41.24
70051;SHT30;57391;51.306;22.680;2023-02-28T12:52:40;7.94;40.54
70051;SHT30;57391;51.306;22.680;2023-02-28T12:55:25;8.05;40.17
70051;SHT30;57391;51.306;22.680;2023-02-28T13:07:06;8.28;39.72
70051;SHT30;57391;51.306;22.680;2023-02-28T13:09:53;8.27;39.42
70051;SHT30;57391;51.306;22.680;2023-02-28T13:12:24;8.23;39.13
70051;SHT30;57391;51.306;22.680;2023-02-28T13:15:16;8.18;38.79
70051;SHT30;57391;51.306;22.680;2023-02-28T13:17:55;8.16;38.80
70051;SHT30;57391;51.306;22.680;2023-02-28T13:20:26;8.22;38.30
70051;SHT30;57391;51.306;22.680;2023-02-28T13:23:02;8.28;38.36
70051;SHT30;57391;51.306;22.680;2023-02-28T13:28:01;8.26;39.37
70051;SHT30;57391;51.306;22.680;2023-02-28T13:38:41;8.00;39.54
70051;SHT30;57391;51.306;22.680;2023-02-28T13:44:10;7.80;39.60
70051;SHT30;57391;51.306;22.680;2023-02-28T13:51:47;7.72;39.49
70051;SHT30;57391;51.306;22.680;2023-02-28T13:57:53;7.51;39.81
70051;SHT30;57391;51.306;22.680;2023-02-28T14:06:52;7.50;40.42
70051;SHT30;57391;51.306;22.680;2023-02-28T14:09:36;7.39;40.31
70051;SHT30;57391;51.306;22.680;2023-02-28T14:18:35;6.96;41.79
70051;SHT30;57391;51.306;22.680;2023-02-28T14:21:10;6.83;41.85
70051;SHT30;57391;51.306;22.680;2023-02-28T14:23:58;6.70;42.48
70051;SHT30;57391;51.306;22.680;2023-02-28T14:39:07;6.13;43.22
70051;SHT30;57391;51.306;22.680;2023-02-28T14:41:48;6.00;43.67
70051;SHT30;57391;51.306;22.680;2023-02-28T14:44:19;5.90;43.76
70051;SHT30;57391;51.306;22.680;2023-02-28T14:46:53;5.82;44.58
70051;SHT30;57391;51.306;22.680;2023-02-28T14:49:27;5.75;45.38
70051;SHT30;57391;51.306;22.680;2023-02-28T14:54:39;5.59;44.89
70051;SHT30;57391;51.306;22.680;2023-02-28T14:57:24;5.53;45.37
70051;SHT30;57391;51.306;22.680;2023-02-28T15:00:22;5.45;45.84
70051;SHT30;57391;51.306;22.680;2023-02-28T15:02:52;5.36;45.93
70051;SHT30;57391;51.306;22.680;2023-02-28T15:05:24;5.35;45.96
70051;SHT30;57391;51.306;22.680;2023-02-28T15:08:15;5.31;46.04
70051;SHT30;57391;51.306;22.680;2023-02-28T15:10:51;5.22;46.30
70051;SHT30;57391;51.306;22.680;2023-02-28T15:13:26;5.13;46.45
70051;SHT30;57391;51.306;22.680;2023-02-28T15:19:05;4.89;46.70
70051;SHT30;57391;51.306;22.680;2023-02-28T15:21:52;4.76;46.89
70051;SHT30;57391;51.306;22.680;2023-02-28T15:24:38;4.63;46.89
70051;SHT30;57391;51.306;22.680;2023-02-28T15:29:56;4.43;47.74
70051;SHT30;57391;51.306;22.680;2023-02-28T15:32:28;4.35;48.05
70051;SHT30;57391;51.306;22.680;2023-02-28T15:38:24;4.19;49.17
70051;SHT30;57391;51.306;22.680;2023-02-28T15:40:55;4.07;49.16
70051;SHT30;57391;51.306;22.680;2023-02-28T15:46:07;3.87;49.52
70051;SHT30;57391;51.306;22.680;2023-02-28T15:48:50;3.77;49.74
70051;SHT30;57391;51.306;22.680;2023-02-28T15:51:25;3.67;49.97
70051;SHT30;57391;51.306;22.680;2023-02-28T15:54:08;3.60;50.25
70051;SHT30;57391;51.306;22.680;2023-02-28T15:56:46;3.49;50.71
70051;SHT30;57391;51.306;22.680;2023-02-28T15:59:28;3.38;51.22
70051;SHT30;57391;51.306;22.680;2023-02-28T16:04:55;3.18;51.93
70051;SHT30;57391;51.306;22.680;2023-02-28T16:07:26;3.10;52.18
70051;SHT30;57391;51.306;22.680;2023-02-28T16:09:54;3.04;52.59
70051;SHT30;57391;51.306;22.680;2023-02-28T16:12:24;2.96;53.03
70051;SHT30;57391;51.306;22.680;2023-02-28T16:14:55;2.89;53.33
70051;SHT30;57391;51.306;22.680;2023-02-28T16:17:31;2.82;53.59
70051;SHT30;57391;51.306;22.680;2023-02-28T16:20:05;2.76;53.58
70051;SHT30;57391;51.306;22.680;2023-02-28T16:22:55;2.71;53.64
70051;SHT30;57391;51.306;22.680;2023-02-28T16:25:26;2.65;53.69
70051;SHT30;57391;51.306;22.680;2023-02-28T16:28:02;2.60;53.89
70051;SHT30;57391;51.306;22.680;2023-02-28T16:30:35;2.55;53.92
70051;SHT30;57391;51.306;22.680;2023-02-28T16:33:02;2.48;54.15
70051;SHT30;57391;51.306;22.680;2023-02-28T16:35:30;2.43;54.22
70051;SHT30;57391;51.306;22.680;2023-02-28T16:37:57;2.41;54.31
70051;SHT30;57391;51.306;22.680;2023-02-28T16:40:25;2.36;54.54
70051;SHT30;57391;51.306;22.680;2023-02-28T16:42:58;2.31;54.69
70051;SHT30;57391;51.306;22.680;2023-02-28T16:45:28;2.27;54.82
70051;SHT30;57391;51.306;22.680;2023-02-28T16:47:56;2.21;55.01
70051;SHT30;57391;51.306;22.680;2023-02-28T16:50:24;2.15;55.18
70051;SHT30;57391;51.306;22.680;2023-02-28T16:52:55;2.09;55.55
70051;SHT30;57391;51.306;22.680;2023-02-28T16:55:23;2.04;55.77
70051;SHT30;57391;51.306;22.680;2023-02-28T16:57:57;2.00;55.93
70051;SHT30;57391;51.306;22.680;2023-02-28T17:00:28;1.96;55.90
70051;SHT30;57391;51.306;22.680;2023-02-28T17:02:57;1.95;56.01
70051;SHT30;57391;51.306;22.680;2023-02-28T17:05:36;1.91;56.19
70051;SHT30;57391;51.306;22.680;2023-02-28T17:08:06;1.90;56.42
70051;SHT30;57391;51.306;22.680;2023-02-28T17:10:33;1.88;56.53
70051;SHT30;57391;51.306;22.680;2023-02-28T17:13:01;1.86;57.51
70051;SHT30;57391;51.306;22.680;2023-02-28T17:15:28;1.84;57.76
70051;SHT30;57391;51.306;22.680;2023-02-28T17:17:56;1.80;57.82
70051;SHT30;57391;51.306;22.680;2023-02-28T17:20:24;1.77;58.12
70051;SHT30;57391;51.306;22.680;2023-02-28T17:22:53;1.74;58.43
70051;SHT30;57391;51.306;22.680;2023-02-28T17:25:23;1.72;58.51
70051;SHT30;57391;51.306;22.680;2023-02-28T17:27:53;1.67;58.79
70051;SHT30;57391;51.306;22.680;2023-02-28T17:30:22;1.63;58.93
70051;SHT30;57391;51.306;22.680;2023-02-28T17:32:55;1.61;59.03
70051;SHT30;57391;51.306;22.680;2023-02-28T17:35:24;1.57;59.11
70051;SHT30;57391;51.306;22.680;2023-02-28T17:37:53;1.55;59.25
70051;SHT30;57391;51.306;22.680;2023-02-28T17:40:21;1.53;59.12
70051;SHT30;57391;51.306;22.680;2023-02-28T17:42:50;1.50;58.51
70051;SHT30;57391;51.306;22.680;2023-02-28T17:45:18;1.47;58.31
70051;SHT30;57391;51.306;22.680;2023-02-28T17:47:47;1.46;58.53
70051;SHT30;57391;51.306;22.680;2023-02-28T17:50:18;1.43;58.56
70051;SHT30;57391;51.306;22.680;2023-02-28T17:52:48;1.39;58.77
70051;SHT30;57391;51.306;22.680;2023-02-28T17:55:16;1.37;59.02
70051;SHT30;57391;51.306;22.680;2023-02-28T17:57:45;1.36;59.03
70051;SHT30;57391;51.306;22.680;2023-02-28T18:00:14;1.34;59.02
70051;SHT30;57391;51.306;22.680;2023-02-28T18:02:44;1.31;59.10
70051;SHT30;57391;51.306;22.680;2023-02-28T18:05:12;1.29;59.13
70051;SHT30;57391;51.306;22.680;2023-02-28T18:07:39;1.26;59.08
70051;SHT30;57391;51.306;22.680;2023-02-28T18:10:11;1.24;59.26
70051;SHT30;57391;51.306;22.680;2023-02-28T18:12:50;1.20;59.41
70051;SHT30;57391;51.306;22.680;2023-02-28T18:15:19;1.18;59.53
70051;SHT30;57391;51.306;22.680;2023-02-28T18:17:48;1.16;59.62
70051;SHT30;57391;51.306;22.680;2023-02-28T18:20:17;1.16;59.66
70051;SHT30;57391;51.306;22.680;2023-02-28T18:22:45;1.14;60.37
70051;SHT30;57391;51.306;22.680;2023-02-28T18:25:13;1.11;60.43
70051;SHT30;57391;51.306;22.680;2023-02-28T18:27:43;1.08;60.22
70051;SHT30;57391;51.306;22.680;2023-02-28T18:30:25;1.05;60.23
70051;SHT30;57391;51.306;22.680;2023-02-28T18:32:58;1.02;60.37
70051;SHT30;57391;51.306;22.680;2023-02-28T18:35:28;1.02;60.38
70051;SHT30;57391;51.306;22.680;2023-02-28T18:38:07;0.95;60.43
70051;SHT30;57391;51.306;22.680;2023-02-28T18:40:56;0.93;60.65
70051;SHT30;57391;51.306;22.680;2023-02-28T18:43:30;0.93;60.71
70051;SHT30;57391;51.306;22.680;2023-02-28T18:46:03;0.92;61.15
70051;SHT30;57391;51.306;22.680;2023-02-28T18:48:32;0.89;61.38